createdAt,value
2022-08-28T08:54:01.369Z,97.50
2022-08-28T08:56:35.022Z,96.90
2022-08-28T08:59:08.097Z,97.50
2022-08-28T09:02:12.370Z,95.60
2022-08-28T09:05:23.933Z,93.50
2022-08-28T09:08:19.791Z,93.10
2022-08-28T09:11:02.278Z,93.30
2022-08-28T09:13:46.568Z,92.10
2022-08-28T09:16:23.767Z,91.90
2022-08-28T09:19:02.290Z,90.60
2022-08-28T09:21:50.187Z,86.40
2022-08-28T09:24:28.519Z,87.50
2022-08-28T09:29:38.437Z,90.10
2022-08-28T09:35:20.033Z,87.90
2022-08-28T09:37:48.099Z,81.10
2022-08-28T09:40:52.086Z,86.30
2022-08-28T09:43:31.694Z,83.00
2022-08-28T09:46:08.586Z,79.60
2022-08-28T09:48:43.468Z,81.30
2022-08-28T09:51:38.945Z,80.40
2022-08-28T09:54:30.156Z,78.20
2022-08-28T09:57:09.493Z,76.80
2022-08-28T09:59:38.679Z,76.40
2022-08-28T10:02:39.878Z,76.40
2022-08-28T10:05:18.801Z,75.20
2022-08-28T10:08:13.399Z,69.40
2022-08-28T10:15:57.025Z,74.00
2022-08-28T10:18:34.533Z,70.60
2022-08-28T10:21:36.738Z,72.90
2022-08-28T10:24:27.405Z,71.70
2022-08-28T10:27:08.913Z,69.40
2022-08-28T10:30:20.107Z,72.10
2022-08-28T10:35:34.926Z,69.00
2022-08-28T10:38:07.586Z,66.50
2022-08-28T10:43:28.451Z,65.50
2022-08-28T10:46:02.092Z,63.90
2022-08-28T10:51:20.283Z,64.50
2022-08-28T10:54:13.639Z,61.50
2022-08-28T10:59:42.065Z,61.90
2022-08-28T11:02:21.151Z,63.60
2022-08-28T11:10:22.044Z,61.10
2022-08-28T11:13:10.227Z,62.50
2022-08-28T11:15:56.480Z,60.70
2022-08-28T11:19:18.143Z,63.60
2022-08-28T11:22:25.421Z,60.80
2022-08-28T11:25:19.311Z,63.00
2022-08-28T11:28:11.450Z,61.50
2022-08-28T11:30:47.029Z,59.00
2022-08-28T11:33:36.275Z,60.80
2022-08-28T11:36:32.099Z,60.90
2022-08-28T11:39:19.042Z,59.20
2022-08-28T11:42:10.025Z,59.90
2022-08-28T11:44:48.920Z,59.40
2022-08-28T11:47:37.079Z,59.50
2022-08-28T11:53:31.851Z,58.70
2022-08-28T11:58:56.696Z,58.70
2022-08-28T12:01:42.637Z,59.50
2022-08-28T12:04:22.054Z,59.50
2022-08-28T12:32:37.532Z,56.90
2022-08-28T12:35:36.824Z,56.20
2022-08-28T12:44:02.696Z,56.50
2022-08-28T12:59:33.785Z,55.30
2022-08-28T13:02:12.360Z,55.00
2022-08-28T13:05:01.441Z,55.90
2022-08-28T13:07:56.477Z,55.30
2022-08-28T13:10:39.777Z,54.60
2022-08-28T13:13:32.043Z,54.70
2022-08-28T13:21:59.739Z,55.10
2022-08-28T13:24:41.155Z,55.60
2022-08-28T13:36:16.235Z,55.00
2022-08-28T13:50:52.721Z,53.50
2022-08-28T14:02:45.912Z,53.80
2022-08-28T14:05:27.623Z,53.60
2022-08-28T14:08:13.768Z,52.60
2022-08-28T14:13:37.115Z,52.80
2022-08-28T14:16:37.857Z,52.30
2022-08-28T14:19:47.039Z,52.80
2022-08-28T14:28:12.869Z,53.00
2022-08-28T14:36:32.554Z,53.40
2022-08-28T14:39:14.312Z,53.40
